Time;durP1;ratioP1;P1;durP2;ratioP2;P2;SDS_P1;SDS_P2;PMS_P1;PMS_P2;Temp;Humidity;BMP_temperature;BMP_pressure;BME280_temperature;BME280_humidity;BME280_pressure;Samples;Min_cycle;Max_cycle;Signal;HPM_P1;HPM_P2
2022/03/29 00:01:59;;;;;;;35.75;14.10;;;13.70;94.00;;;;;;7340695;19;111354;-87
2022/03/29 00:04:27;;;;;;;36.67;13.30;;;13.60;94.10;;;;;;7342326;19;110701;-87
2022/03/29 00:06:55;;;;;;;38.58;13.80;;;13.50;94.20;;;;;;7337964;19;111482;-87
2022/03/29 00:09:22;;;;;;;44.90;13.60;;;13.50;94.30;;;;;;7341100;19;114170;-87
2022/03/29 00:11:49;;;;;;;35.33;13.43;;;13.40;94.50;;;;;;7340927;19;113453;-87
2022/03/29 00:14:17;;;;;;;34.67;12.95;;;13.30;94.40;;;;;;7344854;19;113519;-86
2022/03/29 00:16:44;;;;;;;37.65;13.98;;;13.30;94.40;;;;;;7339205;19;109868;-86
2022/03/29 00:19:12;;;;;;;36.72;13.93;;;13.30;94.30;;;;;;7337289;19;114138;-86
2022/03/29 00:21:39;;;;;;;33.75;13.18;;;13.40;94.30;;;;;;7338519;19;111400;-87
2022/03/29 00:24:06;;;;;;;36.00;13.00;;;13.40;94.10;;;;;;7338665;19;111423;-86
2022/03/29 00:26:33;;;;;;;29.30;13.27;;;13.40;94.10;;;;;;7339973;19;111771;-86
2022/03/29 00:29:00;;;;;;;34.38;13.68;;;13.40;94.10;;;;;;7341095;19;111547;-87
2022/03/29 00:31:27;;;;;;;33.70;13.38;;;13.40;94.10;;;;;;7341298;19;110970;-86
2022/03/29 00:33:54;;;;;;;35.28;12.50;;;13.30;94.10;;;;;;7342899;19;110910;-87
2022/03/29 00:36:21;;;;;;;37.15;12.73;;;13.20;94.40;;;;;;7346416;19;111676;-87
2022/03/29 00:38:49;;;;;;;36.65;13.07;;;13.20;94.50;;;;;;7340642;19;111188;-87
2022/03/29 00:41:16;;;;;;;31.83;12.57;;;13.00;94.80;;;;;;7336276;19;112135;-86
2022/03/29 00:43:43;;;;;;;31.35;12.60;;;12.90;95.00;;;;;;7336880;19;110960;-87
2022/03/29 00:46:10;;;;;;;33.70;13.23;;;12.80;95.20;;;;;;7338764;19;111405;-87
2022/03/29 00:48:38;;;;;;;35.78;12.85;;;12.70;95.40;;;;;;7338954;19;111496;-87
2022/03/29 00:51:06;;;;;;;37.92;12.48;;;12.60;95.60;;;;;;7338959;19;112720;-87
2022/03/29 00:53:33;;;;;;;34.15;12.00;;;12.50;95.70;;;;;;7338384;19;112821;-86
2022/03/29 00:56:02;;;;;;;31.92;12.35;;;12.50;96.00;;;;;;7344876;19;113608;-85
2022/03/29 00:58:30;;;;;;;31.55;12.18;;;12.40;96.20;;;;;;7337238;19;112388;-87
2022/03/29 01:01:01;;;;;;;36.40;11.38;;;12.30;96.20;;;;;;7336400;19;110788;-87
2022/03/29 01:03:30;;;;;;;35.85;11.27;;;12.20;96.30;;;;;;7339317;19;114812;-86
2022/03/29 01:05:57;;;;;;;38.75;11.65;;;12.20;96.50;;;;;;7338046;19;111368;-87
2022/03/29 01:08:25;;;;;;;42.22;12.55;;;12.20;96.60;;;;;;7340907;19;111564;-87
2022/03/29 01:10:53;;;;;;;33.53;11.75;;;12.10;96.80;;;;;;7338819;19;111013;-87
2022/03/29 01:13:21;;;;;;;33.33;11.90;;;12.00;96.90;;;;;;7339177;19;111444;-87
2022/03/29 01:15:49;;;;;;;33.78;11.73;;;12.00;97.00;;;;;;7339503;19;112709;-87
2022/03/29 01:18:18;;;;;;;35.08;12.05;;;12.00;97.10;;;;;;7342219;19;111825;-86
2022/03/29 01:20:49;;;;;;;29.77;11.02;;;12.00;97.10;;;;;;7337089;19;111681;-87
2022/03/29 01:23:18;;;;;;;34.60;11.80;;;12.00;97.20;;;;;;7338105;19;110686;-87
2022/03/29 01:25:49;;;;;;;32.40;11.65;;;11.90;97.50;;;;;;7339861;19;110556;-86
2022/03/29 01:28:17;;;;;;;34.55;11.48;;;11.90;97.60;;;;;;7339736;19;112730;-86
2022/03/29 01:30:51;;;;;;;39.97;11.65;;;11.80;97.70;;;;;;7338900;19;109955;-87
2022/03/29 01:33:18;;;;;;;33.15;11.25;;;11.80;97.90;;;;;;7339534;19;110709;-87
2022/03/29 01:35:46;;;;;;;32.30;12.07;;;11.80;97.70;;;;;;7338291;19;111788;-88
2022/03/29 01:38:13;;;;;;;32.70;11.48;;;11.80;97.80;;;;;;7339352;19;111257;-87
2022/03/29 01:40:40;;;;;;;33.75;11.82;;;11.80;97.80;;;;;;7341480;19;111360;-87
2022/03/29 01:43:07;;;;;;;34.38;11.23;;;11.80;97.90;;;;;;7341328;19;112604;-87
2022/03/29 01:45:34;;;;;;;30.70;11.25;;;11.80;97.80;;;;;;7337372;19;111642;-86
2022/03/29 01:48:02;;;;;;;25.80;11.52;;;11.80;97.90;;;;;;7340081;19;111294;-87
2022/03/29 01:50:30;;;;;;;30.73;12.15;;;11.80;98.00;;;;;;7338116;19;111497;-86
2022/03/29 01:52:57;;;;;;;27.45;10.73;;;11.80;98.00;;;;;;7338468;19;114188;-87
2022/03/29 01:55:25;;;;;;;29.83;11.38;;;11.80;98.00;;;;;;7339454;19;111598;-87
2022/03/29 01:57:53;;;;;;;34.47;12.35;;;11.70;98.30;;;;;;7339650;19;110134;-87
2022/03/29 02:00:33;;;;;;;36.08;11.27;;;11.60;98.60;;;;;;7338453;19;110693;-87
2022/03/29 02:03:05;;;;;;;27.30;11.60;;;11.50;98.70;;;;;;7344240;19;114936;-87
2022/03/29 02:05:33;;;;;;;34.35;12.20;;;11.50;98.70;;;;;;7338855;19;111453;-87
2022/03/29 02:08:01;;;;;;;38.10;11.43;;;11.50;98.80;;;;;;7337354;19;112040;-87
2022/03/29 02:10:29;;;;;;;33.67;11.75;;;11.50;98.90;;;;;;7338166;19;111399;-86
2022/03/29 02:12:57;;;;;;;32.70;12.20;;;11.50;98.90;;;;;;7338182;19;113271;-87
2022/03/29 02:15:25;;;;;;;33.55;12.13;;;11.50;98.70;;;;;;7339355;19;110872;-87
2022/03/29 02:17:52;;;;;;;30.75;11.43;;;11.50;98.70;;;;;;7334955;19;110883;-87
2022/03/29 02:20:23;;;;;;;31.83;11.88;;;11.50;98.60;;;;;;7338665;19;113715;-87
2022/03/29 02:22:50;;;;;;;28.95;11.35;;;11.60;98.50;;;;;;7336569;19;115505;-86
2022/03/29 02:25:17;;;;;;;31.33;11.77;;;11.60;98.30;;;;;;7343182;19;110482;-86
2022/03/29 02:27:45;;;;;;;33.95;12.05;;;11.60;98.60;;;;;;7339298;19;113661;-87
2022/03/29 02:30:16;;;;;;;31.05;11.63;;;11.50;98.80;;;;;;7336817;19;110472;-86
2022/03/29 02:32:44;;;;;;;37.03;12.45;;;11.50;99.10;;;;;;7339892;19;111565;-87
2022/03/29 02:35:12;;;;;;;29.88;12.60;;;11.30;99.30;;;;;;7336131;19;113257;-86
2022/03/29 02:37:40;;;;;;;37.58;14.93;;;11.30;99.60;;;;;;7337237;19;111563;-87
2022/03/29 02:40:08;;;;;;;33.95;13.63;;;11.30;99.70;;;;;;7336789;19;110596;-87
2022/03/29 02:42:47;;;;;;;38.95;13.73;;;11.30;99.80;;;;;;7334303;19;113412;-87
2022/03/29 02:45:15;;;;;;;34.55;13.00;;;11.20;99.90;;;;;;7337632;19;110951;-86
2022/03/29 02:47:48;;;;;;;31.15;13.77;;;11.10;99.90;;;;;;7340693;19;110485;-87
2022/03/29 02:50:16;;;;;;;36.92;13.95;;;11.10;99.90;;;;;;7333290;19;111533;-87
2022/03/29 02:52:45;;;;;;;36.60;14.25;;;11.10;99.90;;;;;;7335271;19;111121;-87
2022/03/29 02:55:13;;;;;;;38.70;14.70;;;11.10;99.90;;;;;;7335894;19;112344;-87
2022/03/29 02:57:40;;;;;;;38.78;13.43;;;11.10;99.90;;;;;;7335714;19;110728;-87
2022/03/29 03:00:09;;;;;;;41.22;14.68;;;11.10;99.90;;;;;;7333483;19;111609;-87
2022/03/29 03:02:37;;;;;;;36.88;15.70;;;11.10;99.90;;;;;;7335699;19;111475;-88
2022/03/29 03:05:04;;;;;;;32.42;14.10;;;11.00;99.90;;;;;;7337066;19;110092;-86
2022/03/29 03:07:31;;;;;;;41.08;15.13;;;11.00;99.90;;;;;;7340876;19;110382;-87
2022/03/29 03:09:58;;;;;;;;;;;11.10;99.90;;;;;;7337836;19;110045;-87
2022/03/29 03:12:25;;;;;;;33.03;14.75;;;11.10;99.90;;;;;;7343179;19;111058;-87
2022/03/29 03:14:53;;;;;;;37.22;15.07;;;11.00;99.90;;;;;;7336670;19;111692;-87
2022/03/29 03:17:20;;;;;;;33.15;14.98;;;11.00;99.90;;;;;;7332700;19;110682;-86
2022/03/29 03:19:47;;;;;;;41.22;15.38;;;11.00;99.90;;;;;;7332272;19;114291;-87
2022/03/29 03:22:14;;;;;;;37.03;15.60;;;11.00;99.90;;;;;;7332490;19;111408;-87
2022/03/29 03:24:41;;;;;;;38.15;16.10;;;10.90;99.90;;;;;;7335166;19;110789;-86
2022/03/29 03:27:08;;;;;;;34.65;15.73;;;10.90;99.90;;;;;;7334810;19;114405;-87
2022/03/29 03:29:35;;;;;;;40.78;16.30;;;10.90;99.90;;;;;;7341470;19;111380;-86
2022/03/29 03:32:03;;;;;;;35.80;16.23;;;11.00;99.90;;;;;;7335971;19;112422;-87
2022/03/29 03:34:30;;;;;;;40.75;17.35;;;11.00;99.90;;;;;;7333560;19;111556;-87
2022/03/29 03:36:58;;;;;;;42.05;16.92;;;10.90;99.90;;;;;;7335935;19;113403;-86
2022/03/29 03:39:25;;;;;;;40.92;17.27;;;10.90;99.90;;;;;;7335988;19;110779;-87
2022/03/29 03:41:52;;;;;;;37.92;17.58;;;10.90;99.90;;;;;;7333214;19;111944;-87
2022/03/29 03:44:19;;;;;;;37.83;17.50;;;11.00;99.90;;;;;;7335908;19;109954;-87
2022/03/29 03:46:46;;;;;;;42.25;18.30;;;11.00;99.90;;;;;;7334332;19;111465;-87
2022/03/29 03:49:13;;;;;;;39.08;18.33;;;11.10;99.90;;;;;;7333965;19;111848;-87
2022/03/29 03:51:40;;;;;;;39.78;18.52;;;11.20;99.90;;;;;;7339143;19;110556;-87
2022/03/29 03:54:08;;;;;;;45.03;19.58;;;11.10;99.90;;;;;;7338455;19;110822;-87
2022/03/29 03:56:35;;;;;;;40.58;19.98;;;11.00;99.90;;;;;;7341450;19;111275;-86
2022/03/29 03:59:02;;;;;;;45.75;19.20;;;10.90;99.90;;;;;;7341145;19;110761;-87
2022/03/29 04:01:29;;;;;;;41.95;19.70;;;10.80;99.90;;;;;;7340408;19;110858;-87
2022/03/29 04:03:57;;;;;;;43.08;20.25;;;10.60;99.90;;;;;;7343169;19;112254;-86
2022/03/29 04:06:24;;;;;;;46.22;19.40;;;10.50;99.90;;;;;;7340708;19;113193;-87
2022/03/29 04:08:51;;;;;;;46.50;20.33;;;10.50;99.90;;;;;;7341612;19;113189;-87
2022/03/29 04:11:19;;;;;;;43.53;19.42;;;10.60;99.90;;;;;;7344560;19;110692;-87
2022/03/29 04:13:46;;;;;;;43.55;19.73;;;10.60;99.90;;;;;;7346509;19;111384;-87
2022/03/29 04:16:14;;;;;;;45.47;20.50;;;10.60;99.90;;;;;;7343410;19;109850;-88
2022/03/29 04:18:41;;;;;;;45.45;21.02;;;10.40;99.90;;;;;;7340199;19;110346;-87
2022/03/29 04:21:09;;;;;;;47.80;21.92;;;10.40;99.90;;;;;;7339739;19;113552;-87
2022/03/29 04:23:36;;;;;;;46.58;19.83;;;10.40;99.90;;;;;;7338647;19;110263;-86
2022/03/29 04:26:04;;;;;;;45.40;20.67;;;10.40;99.90;;;;;;7339804;19;111199;-87
2022/03/29 04:28:32;;;;;;;49.50;22.55;;;10.40;99.90;;;;;;7339729;19;111055;-86
2022/03/29 04:31:00;;;;;;;47.10;21.45;;;10.30;99.90;;;;;;7339207;19;110324;-87
2022/03/29 04:33:28;;;;;;;50.97;21.55;;;10.30;99.90;;;;;;7340189;19;110546;-88
2022/03/29 04:35:55;;;;;;;44.95;21.73;;;10.30;99.90;;;;;;7347419;19;110994;-87
2022/03/29 04:38:26;;;;;;;47.63;21.63;;;10.20;99.90;;;;;;7339626;19;111881;-87
2022/03/29 04:40:53;;;;;;;48.20;21.27;;;10.30;99.90;;;;;;7339946;19;111630;-87
2022/03/29 04:43:20;;;;;;;47.20;21.30;;;10.20;99.90;;;;;;7340703;19;110065;-87
2022/03/29 04:45:48;;;;;;;45.35;21.35;;;10.30;99.90;;;;;;7340163;19;112709;-87
2022/03/29 04:48:15;;;;;;;48.15;21.38;;;10.30;99.90;;;;;;7338946;19;111827;-87
2022/03/29 04:50:43;;;;;;;41.58;21.50;;;10.30;99.90;;;;;;7341900;19;113419;-86
2022/03/29 04:53:10;;;;;;;57.13;22.55;;;10.40;99.90;;;;;;7339983;19;111689;-86
2022/03/29 04:55:37;;;;;;;44.55;22.83;;;10.40;99.90;;;;;;7344218;19;111679;-87
2022/03/29 04:58:04;;;;;;;51.20;22.30;;;10.40;99.90;;;;;;7341835;19;114164;-87
2022/03/29 05:00:31;;;;;;;42.17;21.52;;;10.40;99.90;;;;;;7340189;19;111749;-87
2022/03/29 05:02:58;;;;;;;51.25;23.52;;;10.30;99.90;;;;;;7340376;19;109870;-87
2022/03/29 05:05:25;;;;;;;50.00;21.73;;;10.30;99.90;;;;;;7339832;19;113800;-87
2022/03/29 05:07:52;;;;;;;50.30;22.52;;;10.30;99.90;;;;;;7340092;19;111494;-88
2022/03/29 05:10:20;;;;;;;52.42;22.15;;;10.20;99.90;;;;;;7341167;19;110085;-87
2022/03/29 05:12:51;;;;;;;46.88;21.85;;;10.30;99.90;;;;;;7339413;19;112142;-87
2022/03/29 05:15:20;;;;;;;44.13;22.05;;;10.30;99.90;;;;;;7343290;19;113229;-88
2022/03/29 05:17:47;;;;;;;55.70;22.52;;;10.20;99.90;;;;;;7350066;19;110455;-89
2022/03/29 05:20:15;;;;;;;49.40;22.40;;;10.10;99.90;;;;;;7344427;19;109840;-90
2022/03/29 05:22:45;;;;;;;53.15;23.08;;;10.00;99.90;;;;;;7343241;19;112130;-90
2022/03/29 05:25:17;;;;;;;45.88;23.17;;;10.10;99.90;;;;;;7343354;19;113452;-89
2022/03/29 05:27:45;;;;;;;47.42;22.08;;;10.10;99.90;;;;;;7344734;19;111882;-91
2022/03/29 05:30:13;;;;;;;48.60;22.38;;;10.20;99.90;;;;;;7351587;19;109888;-92
2022/03/29 05:32:41;;;;;;;48.17;22.45;;;10.30;99.90;;;;;;7345620;19;113009;-91
2022/03/29 05:35:09;;;;;;;49.67;23.00;;;10.50;99.90;;;;;;7346952;19;111585;-93
2022/03/29 05:37:38;;;;;;;44.10;21.70;;;10.60;99.90;;;;;;7346107;19;110341;-92
2022/03/29 05:40:07;;;;;;;43.70;20.77;;;10.70;99.90;;;;;;7352537;19;114344;-91
2022/03/29 05:45:12;;;;;;;43.70;20.98;;;10.80;99.90;;;;;;7345818;19;112953;-90
2022/03/29 05:50:27;;;;;;;46.78;21.67;;;10.80;99.90;;;;;;7344386;19;111058;-90
2022/03/29 05:52:56;;;;;;;43.03;21.02;;;10.80;99.90;;;;;;7344943;19;111538;-91
2022/03/29 05:55:24;;;;;;;41.72;21.10;;;10.80;99.90;;;;;;7344717;19;114757;-91
2022/03/29 05:57:52;;;;;;;43.40;20.65;;;10.80;99.90;;;;;;7343596;19;113359;-90
2022/03/29 06:00:23;;;;;;;40.65;20.65;;;10.90;99.90;;;;;;7343934;19;111700;-91
2022/03/29 06:02:51;;;;;;;49.75;22.42;;;11.00;99.90;;;;;;7346067;19;114859;-91
2022/03/29 06:05:18;;;;;;;48.80;21.95;;;11.00;99.90;;;;;;7345519;19;114214;-91
2022/03/29 06:07:45;;;;;;;49.03;22.27;;;10.90;99.90;;;;;;7344007;19;113754;-92
2022/03/29 06:10:12;;;;;;;42.50;22.33;;;10.80;99.90;;;;;;7343173;19;112932;-90
2022/03/29 06:12:43;;;;;;;46.92;23.08;;;10.80;99.90;;;;;;7342737;19;111601;-91
2022/03/29 06:15:11;;;;;;;45.88;22.38;;;10.80;99.90;;;;;;7345700;19;112005;-92
2022/03/29 06:17:39;;;;;;;45.45;23.92;;;10.80;99.90;;;;;;7340893;19;112875;-92
2022/03/29 06:20:09;;;;;;;47.00;24.15;;;10.70;99.90;;;;;;7344477;19;113470;-92
2022/03/29 06:22:44;;;;;;;44.10;22.90;;;10.60;99.90;;;;;;7342513;19;115616;-91
2022/03/29 06:25:13;;;;;;;50.28;24.35;;;10.60;99.90;;;;;;7349507;19;111197;-91
2022/03/29 06:27:41;;;;;;;48.65;23.27;;;10.50;99.90;;;;;;7344553;19;113212;-91
2022/03/29 06:30:09;;;;;;;47.38;24.10;;;10.50;99.90;;;;;;7343996;19;112865;-92
2022/03/29 06:32:50;;;;;;;52.55;24.25;;;10.50;99.90;;;;;;7344594;19;114290;-92
2022/03/29 06:35:26;;;;;;;53.70;25.23;;;10.40;99.90;;;;;;7343033;19;113187;-91
2022/03/29 06:37:56;;;;;;;49.95;23.90;;;10.40;99.90;;;;;;7343663;19;113082;-92
2022/03/29 06:40:25;;;;;;;57.72;25.65;;;10.50;99.90;;;;;;7343563;19;114435;-91
2022/03/29 06:42:57;;;;;;;52.50;25.52;;;10.50;99.90;;;;;;7342066;19;112941;-91
2022/03/29 06:45:28;;;;;;;50.10;25.55;;;10.40;99.90;;;;;;7343728;19;112793;-92
2022/03/29 06:47:57;;;;;;;55.20;26.25;;;10.40;99.90;;;;;;7349470;19;113319;-91
2022/03/29 06:50:25;;;;;;;56.78;26.13;;;10.50;99.90;;;;;;7342975;19;112730;-92
2022/03/29 06:52:52;;;;;;;54.90;25.73;;;10.40;99.90;;;;;;7343971;19;114168;-92
2022/03/29 06:55:26;;;;;;;49.53;24.92;;;10.50;99.90;;;;;;7344185;19;115391;-90
2022/03/29 06:57:53;;;;;;;55.60;25.13;;;10.50;99.90;;;;;;7343268;19;110255;-92
2022/03/29 07:00:21;;;;;;;55.85;25.83;;;10.60;99.90;;;;;;7344107;19;114027;-92
2022/03/29 07:02:49;;;;;;;53.80;25.55;;;10.70;99.90;;;;;;7342818;19;113785;-92
2022/03/29 07:05:19;;;;;;;57.90;26.80;;;10.70;99.90;;;;;;7344171;19;110409;-92
2022/03/29 07:07:46;;;;;;;51.92;26.10;;;10.60;99.90;;;;;;7349110;19;112253;-92
2022/03/29 07:13:01;;;;;;;53.63;27.02;;;10.50;99.90;;;;;;7343898;19;111767;-93
2022/03/29 07:15:29;;;;;;;55.05;27.73;;;10.60;99.90;;;;;;7343951;19;111358;-89
2022/03/29 07:17:57;;;;;;;59.47;27.23;;;10.50;99.90;;;;;;7343223;19;113113;-92
2022/03/29 07:20:24;;;;;;;65.43;27.92;;;10.60;99.90;;;;;;7343834;19;112365;-92
2022/03/29 07:22:52;;;;;;;56.47;28.08;;;10.70;99.90;;;;;;7341868;19;111885;-92
2022/03/29 07:25:21;;;;;;;59.15;29.02;;;10.80;99.90;;;;;;7343979;19;112929;-93
2022/03/29 07:27:53;;;;;;;53.22;28.13;;;10.80;99.90;;;;;;7344018;19;113930;-92
2022/03/29 07:30:22;;;;;;;56.03;27.73;;;10.80;99.90;;;;;;7357622;19;114296;-92
2022/03/29 07:32:52;;;;;;;55.25;27.83;;;10.90;99.90;;;;;;7350667;19;114072;-93
2022/03/29 07:35:22;;;;;;;59.25;28.60;;;10.90;99.90;;;;;;7349627;19;114897;-92
2022/03/29 07:37:50;;;;;;;59.05;28.70;;;10.90;99.90;;;;;;7350027;19;110311;-91
2022/03/29 07:40:22;;;;;;;55.63;27.50;;;10.90;99.90;;;;;;7349818;19;114204;-92
2022/03/29 07:42:53;;;;;;;54.35;28.40;;;11.00;99.90;;;;;;7347969;19;110842;-92
2022/03/29 07:45:21;;;;;;;56.88;29.23;;;11.10;99.90;;;;;;7350411;19;112665;-93
2022/03/29 07:47:51;;;;;;;58.88;30.15;;;11.10;99.90;;;;;;7350222;19;112482;-91
2022/03/29 07:50:39;;;;;;;64.15;29.38;;;11.20;99.90;;;;;;7349560;19;111843;-92
2022/03/29 07:53:06;;;;;;;54.83;29.20;;;11.20;99.90;;;;;;7354919;19;112542;-92
2022/03/29 07:55:36;;;;;;;53.50;28.27;;;11.30;99.90;;;;;;7349206;19;114898;-91
2022/03/29 07:58:10;;;;;;;56.33;30.42;;;11.30;99.90;;;;;;7350035;19;111492;-91
2022/03/29 08:00:37;;;;;;;57.83;30.23;;;11.30;99.90;;;;;;7348652;19;113461;-91
2022/03/29 08:03:15;;;;;;;53.88;29.40;;;11.40;99.90;;;;;;7347602;19;114548;-92
2022/03/29 08:05:45;;;;;;;53.72;29.23;;;11.40;99.90;;;;;;7349239;19;112520;-91
2022/03/29 08:08:15;;;;;;;55.58;30.50;;;11.40;99.90;;;;;;7347035;19;114400;-91
2022/03/29 08:10:44;;;;;;;56.70;31.38;;;11.30;99.90;;;;;;7348327;19;114337;-92
2022/03/29 08:13:11;;;;;;;56.85;30.17;;;11.40;99.90;;;;;;7349260;19;112903;-91
2022/03/29 08:15:40;;;;;;;60.67;30.42;;;11.40;99.90;;;;;;7354055;19;114560;-92
2022/03/29 08:18:08;;;;;;;59.80;30.67;;;11.40;99.90;;;;;;7348763;19;111563;-91
2022/03/29 08:20:37;;;;;;;54.78;30.08;;;11.60;99.90;;;;;;7348368;19;112742;-91
2022/03/29 08:23:06;;;;;;;56.17;30.13;;;11.70;99.90;;;;;;7345986;19;114180;-92
2022/03/29 08:25:36;;;;;;;55.55;30.90;;;11.80;99.90;;;;;;7348854;19;112895;-91
2022/03/29 08:28:04;;;;;;;56.22;30.42;;;11.80;99.90;;;;;;7348800;19;110469;-90
2022/03/29 08:30:34;;;;;;;54.00;30.40;;;11.80;99.90;;;;;;7347387;19;114508;-92
2022/03/29 08:33:04;;;;;;;56.58;29.90;;;11.90;99.90;;;;;;7347336;19;113196;-91
2022/03/29 08:35:33;;;;;;;58.55;31.90;;;12.00;99.90;;;;;;7348245;19;114156;-94
2022/03/29 08:38:00;;;;;;;58.90;31.38;;;12.00;99.90;;;;;;7352921;19;114809;-92
2022/03/29 08:40:48;;;;;;;57.28;32.33;;;11.90;99.90;;;;;;7345852;19;111495;-91
2022/03/29 08:43:16;;;;;;;52.97;31.15;;;11.90;99.90;;;;;;7347546;19;114053;-92
2022/03/29 08:45:48;;;;;;;55.22;30.25;;;11.90;99.90;;;;;;7348680;19;112944;-92
2022/03/29 08:48:16;;;;;;;53.55;31.27;;;12.00;99.90;;;;;;7347824;19;111952;-93
2022/03/29 08:50:45;;;;;;;59.08;32.45;;;12.10;99.90;;;;;;7347984;19;112849;-93
2022/03/29 08:53:17;;;;;;;59.17;31.88;;;12.10;99.90;;;;;;7348555;19;112977;-92
2022/03/29 08:55:45;;;;;;;52.95;30.83;;;12.20;99.90;;;;;;7348579;19;115085;-92
2022/03/29 08:58:13;;;;;;;55.05;32.00;;;12.20;99.90;;;;;;7347419;19;114197;-93
2022/03/29 09:00:45;;;;;;;62.00;32.13;;;12.30;99.90;;;;;;7353583;19;110460;-92
2022/03/29 09:03:15;;;;;;;55.53;32.53;;;12.30;99.90;;;;;;7346104;19;114237;-91
2022/03/29 09:05:43;;;;;;;56.35;32.58;;;12.40;99.90;;;;;;7347427;19;112177;-92
2022/03/29 09:08:11;;;;;;;56.15;32.30;;;12.50;99.90;;;;;;7347888;19;112777;-92
2022/03/29 09:10:44;;;;;;;59.13;33.28;;;12.50;99.90;;;;;;7345803;19;112669;-92
2022/03/29 09:13:27;;;;;;;62.13;33.00;;;12.50;99.90;;;;;;7345914;19;112750;-92
2022/03/29 09:15:57;;;;;;;54.45;32.85;;;12.60;99.90;;;;;;7344436;19;114028;-91
2022/03/29 09:18:26;;;;;;;56.58;33.63;;;12.70;99.90;;;;;;7348225;19;110448;-93
2022/03/29 09:21:17;;;;;;;58.45;34.00;;;12.80;99.90;;;;;;7353569;19;114395;-93
2022/03/29 09:24:05;;;;;;;63.20;34.20;;;12.80;99.90;;;;;;7346166;19;113788;-93
2022/03/29 09:26:32;;;;;;;57.40;33.72;;;12.80;99.90;;;;;;7346688;19;113014;-93
2022/03/29 09:29:00;;;;;;;56.42;32.78;;;13.00;99.90;;;;;;7346330;19;113289;-93
2022/03/29 09:31:28;;;;;;;56.85;32.88;;;13.10;99.90;;;;;;7346878;19;114958;-92
2022/03/29 09:34:20;;;;;;;55.63;32.88;;;13.10;99.90;;;;;;7358167;19;111540;-92
2022/03/29 09:36:50;;;;;;;60.20;34.25;;;13.10;99.90;;;;;;7364902;19;114208;-90
2022/03/29 09:39:38;;;;;;;54.05;32.97;;;13.10;99.90;;;;;;7367139;19;114987;-92
2022/03/29 09:42:13;;;;;;;63.95;33.92;;;13.20;99.90;;;;;;7366183;19;111061;-93
2022/03/29 09:44:43;;;;;;;59.60;33.25;;;13.20;99.90;;;;;;7365643;19;112894;-92
2022/03/29 09:47:14;;;;;;;58.08;34.33;;;13.20;99.90;;;;;;7361799;19;109842;-91
2022/03/29 09:49:52;;;;;;;52.38;33.13;;;13.30;99.90;;;;;;7358727;19;114282;-91
2022/03/29 09:52:26;;;;;;;54.05;32.88;;;13.40;99.90;;;;;;7361944;19;114492;-92
2022/03/29 09:55:16;;;;;;;56.55;32.63;;;13.40;99.90;;;;;;7362734;19;109855;-90
2022/03/29 09:57:49;;;;;;;56.17;32.85;;;13.60;99.90;;;;;;7365835;19;112777;-93
2022/03/29 10:00:39;;;;;;;55.67;33.67;;;13.60;99.90;;;;;;7364213;19;113818;-92
2022/03/29 10:03:09;;;;;;;54.90;31.77;;;13.60;99.90;;;;;;7365375;19;109910;-91
2022/03/29 10:05:40;;;;;;;59.88;34.45;;;13.60;99.90;;;;;;7356880;19;113015;-91
2022/03/29 10:11:07;;;;;;;62.67;31.90;;;13.70;99.90;;;;;;7360095;19;113433;-92
2022/03/29 10:13:36;;;;;;;57.45;33.53;;;13.70;99.90;;;;;;7361183;19;113475;-92
2022/03/29 10:16:04;;;;;;;55.58;31.70;;;13.80;99.90;;;;;;7356215;19;112952;-92
2022/03/29 10:18:33;;;;;;;54.50;32.25;;;13.80;99.90;;;;;;7342996;19;113858;-93
2022/03/29 10:21:01;;;;;;;54.28;31.75;;;13.80;99.90;;;;;;7343157;19;114230;-92
2022/03/29 10:23:29;;;;;;;55.45;33.83;;;13.90;99.90;;;;;;7341636;19;113132;-92
2022/03/29 10:25:58;;;;;;;52.35;32.58;;;13.90;99.90;;;;;;7344755;19;110286;-93
2022/03/29 10:28:26;;;;;;;52.72;31.25;;;14.10;99.90;;;;;;7345392;19;113697;-94
2022/03/29 10:30:53;;;;;;;53.00;31.42;;;14.10;99.90;;;;;;7351076;19;112498;-92
2022/03/29 10:33:33;;;;;;;57.72;32.90;;;14.10;99.90;;;;;;7345692;19;110326;-91
2022/03/29 10:36:09;;;;;;;51.90;32.40;;;14.20;99.90;;;;;;7344283;19;112701;-92
2022/03/29 10:38:46;;;;;;;49.67;32.83;;;14.30;99.90;;;;;;7345048;19;112680;-94
2022/03/29 10:41:28;;;;;;;52.05;31.77;;;14.60;99.90;;;;;;7346392;19;114451;-92
2022/03/29 10:44:11;;;;;;;60.30;33.65;;;14.80;99.90;;;;;;7343858;19;111866;-93
2022/03/29 10:46:42;;;;;;;53.67;32.78;;;15.00;99.90;;;;;;7343553;19;114413;-94
2022/03/29 10:49:32;;;;;;;51.35;33.42;;;15.20;99.90;;;;;;7343700;19;113675;-92
2022/03/29 10:52:06;;;;;;;58.95;32.60;;;15.40;99.60;;;;;;7342884;19;113228;-94
2022/03/29 10:54:37;;;;;;;52.03;31.35;;;15.70;99.90;;;;;;7347488;19;114926;-92
2022/03/29 10:57:16;;;;;;;54.03;33.00;;;15.90;99.40;;;;;;7344102;19;112629;-91
2022/03/29 10:59:50;;;;;;;58.55;34.40;;;16.10;99.50;;;;;;7341928;19;114152;-91
2022/03/29 11:02:21;;;;;;;59.80;34.47;;;16.30;99.30;;;;;;7334909;19;113889;-90
2022/03/29 11:05:07;;;;;;;62.78;34.22;;;16.50;99.30;;;;;;7332230;19;111715;-91
2022/03/29 11:07:36;;;;;;;52.45;31.83;;;16.30;97.20;;;;;;7336071;19;113943;-91
2022/03/29 11:10:12;;;;;;;52.08;32.13;;;16.20;98.40;;;;;;7337014;19;114374;-91
2022/03/29 11:12:45;;;;;;;57.25;33.88;;;16.10;97.90;;;;;;7338476;19;113046;-91
2022/03/29 11:15:25;;;;;;;52.38;32.88;;;16.10;98.10;;;;;;7337152;19;111954;-90
2022/03/29 11:17:56;;;;;;;52.70;34.38;;;16.20;98.00;;;;;;7343655;19;114913;-91
2022/03/29 11:20:38;;;;;;;54.53;32.95;;;16.10;97.50;;;;;;7336601;19;113467;-90
2022/03/29 11:23:08;;;;;;;50.58;33.60;;;16.00;97.80;;;;;;7336573;19;112632;-91
2022/03/29 11:25:42;;;;;;;55.08;33.20;;;15.90;97.80;;;;;;7335803;19;110621;-91
2022/03/29 11:28:12;;;;;;;59.25;33.45;;;15.90;97.80;;;;;;7339422;19;113532;-91
2022/03/29 11:30:39;;;;;;;56.47;33.50;;;15.90;97.80;;;;;;7338721;19;113269;-91
2022/03/29 11:33:09;;;;;;;59.08;34.67;;;16.10;97.70;;;;;;7338664;19;113153;-90
2022/03/29 11:35:38;;;;;;;58.38;34.85;;;16.10;97.20;;;;;;7338022;19;114683;-93
2022/03/29 11:38:14;;;;;;;53.00;34.03;;;15.90;97.70;;;;;;7342320;19;113960;-92
2022/03/29 11:40:42;;;;;;;50.58;33.10;;;15.80;97.30;;;;;;7338008;19;114437;-90
2022/03/29 11:43:10;;;;;;;62.42;35.15;;;15.80;97.40;;;;;;7336358;19;110369;-90
2022/03/29 11:45:41;;;;;;;60.28;36.47;;;15.80;97.30;;;;;;7335367;19;111521;-91
2022/03/29 11:48:13;;;;;;;60.95;36.67;;;15.80;97.60;;;;;;7343215;19;114453;-92
2022/03/29 11:50:52;;;;;;;60.80;36.13;;;15.90;97.40;;;;;;7343299;19;112985;-91
2022/03/29 11:53:22;;;;;;;62.40;35.83;;;15.70;97.50;;;;;;7343991;19;113888;-92
2022/03/29 11:56:07;;;;;;;55.67;35.83;;;15.80;98.00;;;;;;7343943;19;113939;-90
2022/03/29 11:58:34;;;;;;;58.95;33.65;;;15.90;97.40;;;;;;7343696;19;111615;-91
2022/03/29 12:01:10;;;;;;;62.75;34.90;;;15.80;96.70;;;;;;7346322;19;112587;-92
2022/03/29 12:03:59;;;;;;;59.47;34.97;;;15.90;97.60;;;;;;7342076;19;114408;-93
2022/03/29 12:06:45;;;;;;;59.72;33.25;;;16.10;96.80;;;;;;7342052;19;113376;-90
2022/03/29 12:09:16;;;;;;;61.72;35.05;;;16.00;96.50;;;;;;7341465;19;114157;-90
2022/03/29 12:11:43;;;;;;;55.83;33.30;;;15.90;97.10;;;;;;7340926;19;114955;-91
2022/03/29 12:14:14;;;;;;;63.50;32.50;;;16.10;96.90;;;;;;7340989;19;112193;-91
2022/03/29 12:16:49;;;;;;;54.70;29.98;;;16.30;96.80;;;;;;7346207;19;112368;-91
2022/03/29 12:19:22;;;;;;;60.60;30.42;;;16.60;96.00;;;;;;7347589;19;113290;-90
2022/03/29 12:21:53;;;;;;;57.75;31.30;;;16.60;95.90;;;;;;7348598;19;113024;-93
2022/03/29 12:24:31;;;;;;;58.03;31.77;;;16.70;95.70;;;;;;7352641;19;114759;-90
2022/03/29 12:27:05;;;;;;;54.10;31.73;;;16.80;96.00;;;;;;7347836;19;111836;-91
2022/03/29 12:29:38;;;;;;;48.90;29.63;;;16.90;95.60;;;;;;7345559;19;112323;-91
2022/03/29 12:32:06;;;;;;;60.58;31.15;;;17.20;95.10;;;;;;7346433;19;111839;-91
2022/03/29 12:34:34;;;;;;;65.93;32.38;;;17.30;94.90;;;;;;7347379;19;114066;-91
2022/03/29 12:37:04;;;;;;;65.95;38.88;;;17.30;94.80;;;;;;7346370;19;111054;-91
2022/03/29 12:39:34;;;;;;;68.38;38.80;;;17.00;94.80;;;;;;7346008;19;114309;-90
2022/03/29 12:42:02;;;;;;;66.22;37.78;;;16.60;95.50;;;;;;7346652;19;112226;-89
2022/03/29 12:44:31;;;;;;;76.55;39.58;;;16.40;95.90;;;;;;7344279;19;114050;-91